Terminal Aerodrome Forecast
Issued by NWS Caribou, ME

Home | Current Version | Previous Version | Text Only | Print | Product List | Glossary On
Versions: 1 2 3 4 5 6 7 8 9 10 11 12 13 14 15 16 17 18 19 20 21
000
FTUS41 KCAR 012311 AAB
TAFCAR
TAF AMD
KCAR 012311Z 0123/0218 16010KT 3SM RA SCT020 OVC045
     FM020000 14010KT P6SM -SHRA OVC015
     FM020300 16009KT P6SM OVC008
     FM020900 20010KT P6SM BKN015
     FM021100 22011KT P6SM BKN040=

USA.gov is the U.S. government's official web portal to all federal, state and local government web resources and services.